createdAt,value
2023-12-30T17:42:53.458Z,100667.25
2023-12-30T17:43:27.176Z,100668.22
2023-12-30T17:44:04.738Z,100670.81
2023-12-30T17:44:38.982Z,100672.59
2023-12-30T17:45:16.099Z,100678.78
2023-12-30T17:45:49.783Z,100683.22
2023-12-30T17:46:23.420Z,100677.97
2023-12-30T17:46:57.367Z,100679.81
2023-12-30T17:47:33.866Z,100677.19
2023-12-30T17:48:07.908Z,100688.59
2023-12-30T17:48:41.660Z,100680.75
2023-12-30T17:49:16.340Z,100682.53
2023-12-30T17:49:50.646Z,100680.81
2023-12-30T17:50:26.980Z,100682.59
2023-12-30T17:51:00.596Z,100690.47
2023-12-30T17:51:33.938Z,100684.38
2023-12-30T17:52:07.586Z,100683.50
2023-12-30T17:52:43.123Z,100685.34
2023-12-30T17:53:16.815Z,100680.09
2023-12-30T17:53:52.436Z,100681.94
2023-12-30T17:54:30.387Z,100683.78
2023-12-30T17:55:04.696Z,100682.09
2023-12-30T17:55:38.983Z,100683.91
2023-12-30T17:56:12.587Z,100671.66
2023-12-30T17:56:46.418Z,100679.50
2023-12-30T17:57:20.006Z,100675.09
2023-12-30T17:57:53.352Z,100678.59
2023-12-30T17:58:27.023Z,100678.63
2023-12-30T17:59:00.514Z,100678.63
2023-12-30T17:59:33.859Z,100683.88
2023-12-30T18:00:08.152Z,100682.16
2023-12-30T18:00:48.733Z,100676.13
2023-12-30T18:01:22.632Z,100679.56
2023-12-30T18:01:56.385Z,100680.47
2023-12-30T18:02:29.786Z,100690.94
2023-12-30T18:03:05.739Z,100686.56
2023-12-30T18:03:39.568Z,100682.19
2023-12-30T18:04:13.322Z,100681.31
2023-12-30T18:04:50.376Z,100691.81
2023-12-30T18:05:24.080Z,100683.94
2023-12-30T18:05:57.652Z,100689.19
2023-12-30T18:06:34.559Z,100690.91
2023-12-30T18:07:07.919Z,100691.78
2023-12-30T18:07:41.712Z,100692.63
2023-12-30T18:08:21.326Z,100693.50
2023-12-30T18:08:55.009Z,100694.34
2023-12-30T18:09:29.897Z,100693.47
2023-12-30T18:10:04.300Z,100703.09
2023-12-30T18:10:39.479Z,100690.00
2023-12-30T18:11:14.478Z,100691.81
2023-12-30T18:11:47.777Z,100693.53
2023-12-30T18:12:21.245Z,100690.03
2023-12-30T18:12:54.546Z,100691.81
2023-12-30T18:13:28.926Z,100687.44
2023-12-30T18:14:02.853Z,100690.94
2023-12-30T18:14:41.725Z,100690.09
2023-12-30T18:15:16.160Z,100689.22
2023-12-30T18:15:49.545Z,100697.94
2023-12-30T18:16:24.774Z,100695.38
2023-12-30T18:17:00.203Z,100703.22
2023-12-30T18:17:33.569Z,100701.47
2023-12-30T18:18:09.802Z,100701.47
2023-12-30T18:18:44.661Z,100691.06
2023-12-30T18:19:23.500Z,100697.19
2023-12-30T18:19:57.268Z,100697.28
2023-12-30T18:20:31.130Z,100696.38
2023-12-30T18:21:05.993Z,100691.25
2023-12-30T18:21:39.564Z,100702.59
2023-12-30T18:22:13.336Z,100700.84
2023-12-30T18:22:48.206Z,100692.97
2023-12-30T18:23:21.908Z,100692.13
2023-12-30T18:23:55.505Z,100686.03
2023-12-30T18:24:31.708Z,100692.13
2023-12-30T18:25:05.713Z,100693.03
2023-12-30T18:25:39.241Z,100691.28
2023-12-30T18:26:13.708Z,100693.97
2023-12-30T18:26:51.559Z,100692.25
2023-12-30T18:27:27.385Z,100692.25
2023-12-30T18:28:00.878Z,100687.00
2023-12-30T18:28:34.578Z,100698.34
2023-12-30T18:29:10.564Z,100696.59
2023-12-30T18:29:47.085Z,100688.72
2023-12-30T18:30:21.604Z,100693.97
2023-12-30T18:30:57.888Z,100692.25
2023-12-30T18:31:32.949Z,100691.38
2023-12-30T18:32:10.010Z,100690.59
2023-12-30T18:32:47.311Z,100691.50
2023-12-30T18:33:20.804Z,100688.84
2023-12-30T18:33:54.511Z,100692.38
2023-12-30T18:34:28.462Z,100684.59
2023-12-30T18:35:04.459Z,100681.19
2023-12-30T18:35:38.860Z,100688.13
2023-12-30T18:36:13.029Z,100689.94
2023-12-30T18:36:47.299Z,100682.13
2023-12-30T18:37:21.297Z,100689.06
2023-12-30T18:37:55.834Z,100688.22
2023-12-30T18:38:30.498Z,100684.72
2023-12-30T18:39:07.503Z,100685.59
2023-12-30T18:39:42.001Z,100688.13
2023-12-30T18:40:18.088Z,100682.88
2023-12-30T18:40:51.533Z,100687.22
2023-12-30T18:41:24.973Z,100689.88
2023-12-30T18:41:59.029Z,100688.06
2023-12-30T18:42:32.501Z,100694.19
2023-12-30T18:43:08.955Z,100694.13
2023-12-30T18:43:43.405Z,100694.13
2023-12-30T18:44:19.443Z,100694.13
2023-12-30T18:44:53.085Z,100688.00
2023-12-30T18:45:28.507Z,100690.66
2023-12-30T18:46:02.490Z,100689.78
2023-12-30T18:46:39.248Z,100690.66
2023-12-30T18:47:14.020Z,100689.78
2023-12-30T18:47:47.564Z,100691.53
2023-12-30T18:48:21.085Z,100691.53
2023-12-30T18:48:55.915Z,100695.91
2023-12-30T18:49:29.401Z,100686.31
2023-12-30T18:50:03.098Z,100692.41
2023-12-30T18:50:36.784Z,100686.28
2023-12-30T18:51:10.367Z,100685.41
2023-12-30T18:51:44.460Z,100688.06
2023-12-30T18:52:19.057Z,100689.78
2023-12-30T18:52:53.285Z,100689.75
2023-12-30T18:53:26.702Z,100689.75
2023-12-30T18:53:59.993Z,100688.00
2023-12-30T18:54:33.229Z,100685.44
2023-12-30T18:55:09.454Z,100680.22
2023-12-30T18:55:47.417Z,100681.91
2023-12-30T18:56:20.811Z,100684.53
2023-12-30T18:56:58.474Z,100688.00
2023-12-30T18:57:32.089Z,100685.38
2023-12-30T18:58:07.955Z,100680.22
2023-12-30T18:58:42.944Z,100681.03
2023-12-30T18:59:19.655Z,100681.06
2023-12-30T18:59:53.015Z,100677.59
2023-12-30T19:00:28.127Z,100682.88
2023-12-30T19:01:02.970Z,100684.59
2023-12-30T19:01:46.110Z,100684.63
2023-12-30T19:02:19.662Z,100693.34
2023-12-30T19:02:53.887Z,100683.69
2023-12-30T19:03:33.017Z,100682.84
2023-12-30T19:04:08.190Z,100691.56
2023-12-30T19:04:45.578Z,100689.88
2023-12-30T19:05:19.342Z,100693.34
2023-12-30T19:05:53.186Z,100679.34
2023-12-30T19:06:27.237Z,100688.09
2023-12-30T19:07:03.849Z,100690.75
2023-12-30T19:07:37.487Z,100682.00
2023-12-30T19:08:12.051Z,100695.13
2023-12-30T19:08:46.691Z,100691.66
2023-12-30T19:09:23.135Z,100689.94
2023-12-30T19:09:56.667Z,100692.56
2023-12-30T19:10:30.338Z,100684.69
2023-12-30T19:11:05.053Z,100689.03
2023-12-30T19:11:41.798Z,100687.25
2023-12-30T19:12:15.827Z,100691.63
2023-12-30T19:12:51.229Z,100688.13
2023-12-30T19:13:30.498Z,100691.63
2023-12-30T19:14:04.207Z,100691.69
2023-12-30T19:14:37.821Z,100691.66
2023-12-30T19:15:11.200Z,100679.44
2023-12-30T19:15:46.168Z,100688.22
2023-12-30T19:16:20.184Z,100684.75
2023-12-30T19:16:53.929Z,100683.00
2023-12-30T19:17:30.128Z,100691.72
2023-12-30T19:18:06.127Z,100683.88
2023-12-30T19:18:39.941Z,100682.13
2023-12-30T19:19:19.036Z,100681.22
2023-12-30T19:19:53.195Z,100682.97
2023-12-30T19:20:26.711Z,100686.41
2023-12-30T19:21:00.477Z,100686.41
2023-12-30T19:21:35.255Z,100689.88
2023-12-30T19:22:08.805Z,100692.53
2023-12-30T19:22:42.463Z,100686.41
2023-12-30T19:23:16.552Z,100691.63
2023-12-30T19:23:52.869Z,100689.88
2023-12-30T19:24:26.455Z,100690.72
2023-12-30T19:24:59.959Z,100689.84
2023-12-30T19:25:36.244Z,100688.97
2023-12-30T19:26:09.802Z,100696.78
2023-12-30T19:26:45.011Z,100695.06
2023-12-30T19:27:18.498Z,100691.63
2023-12-30T19:27:55.116Z,100691.63
2023-12-30T19:28:28.504Z,100696.00
2023-12-30T19:29:02.490Z,100694.25
2023-12-30T19:29:36.456Z,100695.13
2023-12-30T19:30:15.574Z,100693.44
2023-12-30T19:30:49.671Z,100698.69
2023-12-30T19:31:23.499Z,100700.47
2023-12-30T19:31:57.291Z,100693.50
2023-12-30T19:32:30.718Z,100693.50
2023-12-30T19:33:06.345Z,100697.03
2023-12-30T19:33:43.380Z,100693.56
2023-12-30T19:34:17.312Z,100699.69
2023-12-30T19:34:51.409Z,100702.28
2023-12-30T19:35:30.659Z,100698.81
2023-12-30T19:36:04.971Z,100702.28
2023-12-30T19:36:39.533Z,100700.59
2023-12-30T19:37:12.993Z,100691.88
2023-12-30T19:37:46.612Z,100697.16
2023-12-30T19:38:20.068Z,100698.94
2023-12-30T19:38:56.221Z,100702.41
2023-12-30T19:39:29.759Z,100697.19
2023-12-30T19:40:04.980Z,100689.34
2023-12-30T19:40:46.789Z,100693.72
2023-12-30T19:41:21.734Z,100691.97
2023-12-30T19:41:55.471Z,100693.72
2023-12-30T19:42:29.244Z,100695.47
2023-12-30T19:43:04.984Z,100698.94
2023-12-30T19:43:38.935Z,100688.53
2023-12-30T19:44:12.640Z,100695.50
2023-12-30T19:44:46.685Z,100689.38
2023-12-30T19:45:23.346Z,100691.13
2023-12-30T19:45:57.008Z,100698.06
2023-12-30T19:46:32.990Z,100697.25
2023-12-30T19:47:06.743Z,100695.50
2023-12-30T19:47:40.471Z,100697.25
2023-12-30T19:48:17.625Z,100695.53
2023-12-30T19:48:50.980Z,100696.38
2023-12-30T19:49:24.924Z,100685.91
2023-12-30T19:49:58.672Z,100690.25
2023-12-30T19:50:32.143Z,100692.00
2023-12-30T19:51:05.648Z,100690.31
2023-12-30T19:51:39.073Z,100697.31
2023-12-30T19:52:16.622Z,100694.69
2023-12-30T19:52:51.118Z,100689.44
2023-12-30T19:53:25.037Z,100692.06
2023-12-30T19:53:58.426Z,100690.31
2023-12-30T19:54:32.167Z,100692.03
2023-12-30T19:55:07.054Z,100687.69
2023-12-30T19:55:43.483Z,100689.44
2023-12-30T19:56:16.963Z,100686.84
2023-12-30T19:56:50.724Z,100693.81
2023-12-30T19:57:24.048Z,100690.31
2023-12-30T19:57:57.547Z,100697.28
2023-12-30T19:58:32.354Z,100690.31
2023-12-30T19:59:06.196Z,100687.69
2023-12-30T19:59:40.833Z,100692.06
2023-12-30T20:00:14.929Z,100687.75
2023-12-30T20:00:48.805Z,100690.34
2023-12-30T20:01:25.090Z,100690.34
2023-12-30T20:01:58.836Z,100689.44
2023-12-30T20:02:33.790Z,100686.03
2023-12-30T20:03:09.641Z,100693.84
2023-12-30T20:03:44.586Z,100688.63
2023-12-30T20:04:18.266Z,100685.09
2023-12-30T20:04:52.401Z,100686.84
2023-12-30T20:05:25.999Z,100692.03
2023-12-30T20:06:00.725Z,100688.53
2023-12-30T20:06:34.657Z,100687.63
2023-12-30T20:07:10.168Z,100692.00
2023-12-30T20:07:44.763Z,100690.25
2023-12-30T20:08:21.281Z,100688.50
2023-12-30T20:08:58.015Z,100694.59
2023-12-30T20:09:31.705Z,100691.13
2023-12-30T20:10:06.080Z,100689.44
2023-12-30T20:10:39.503Z,100695.56
2023-12-30T20:11:13.074Z,100692.94
2023-12-30T20:11:46.536Z,100693.75
2023-12-30T20:12:20.102Z,100700.72
2023-12-30T20:12:54.607Z,100696.38
2023-12-30T20:13:28.271Z,100688.53
2023-12-30T20:14:02.116Z,100692.88
2023-12-30T20:14:38.142Z,100691.16
2023-12-30T20:15:11.584Z,100688.53
2023-12-30T20:15:45.119Z,100692.91
2023-12-30T20:16:18.580Z,100693.75
2023-12-30T20:16:52.142Z,100692.06
2023-12-30T20:17:25.914Z,100696.44
2023-12-30T20:17:59.756Z,100695.59
2023-12-30T20:18:37.073Z,100693.84
2023-12-30T20:19:11.968Z,100697.31
2023-12-30T20:19:46.153Z,100693.00
2023-12-30T20:20:19.582Z,100691.28
2023-12-30T20:20:52.961Z,100684.28
2023-12-30T20:21:26.949Z,100693.84
2023-12-30T20:22:01.743Z,100692.97
2023-12-30T20:22:35.424Z,100694.72
2023-12-30T20:23:08.773Z,100690.34
2023-12-30T20:23:49.864Z,100695.66
2023-12-30T20:24:23.569Z,100695.66
2023-12-30T20:24:56.993Z,100699.13
2023-12-30T20:25:33.621Z,100686.09
2023-12-30T20:26:10.604Z,100688.75
2023-12-30T20:26:44.925Z,100690.50
2023-12-30T20:27:18.264Z,100693.13
2023-12-30T20:27:51.700Z,100694.00
2023-12-30T20:28:25.504Z,100687.06
2023-12-30T20:28:59.262Z,100683.59
2023-12-30T20:29:35.258Z,100688.81
2023-12-30T20:30:09.944Z,100683.63
2023-12-30T20:30:46.688Z,100688.03
2023-12-30T20:31:21.221Z,100683.66
2023-12-30T20:31:57.198Z,100685.38
2023-12-30T20:32:32.611Z,100681.91
2023-12-30T20:33:06.426Z,100687.13
2023-12-30T20:33:40.170Z,100683.59
2023-12-30T20:34:13.909Z,100678.34
2023-12-30T20:34:50.873Z,100681.03
2023-12-30T20:35:24.589Z,100680.16
2023-12-30T20:35:58.283Z,100681.91
2023-12-30T20:36:33.044Z,100684.53
2023-12-30T20:37:06.622Z,100680.19
2023-12-30T20:37:40.050Z,100680.19
2023-12-30T20:38:16.588Z,100683.69
2023-12-30T20:38:51.289Z,100676.72
2023-12-30T20:39:24.647Z,100680.25
2023-12-30T20:40:00.047Z,100673.25
2023-12-30T20:40:37.238Z,100683.72
2023-12-30T20:41:11.549Z,100682.03
2023-12-30T20:41:45.034Z,100681.13
2023-12-30T20:42:19.028Z,100680.25
2023-12-30T20:42:55.730Z,100678.53
2023-12-30T20:43:29.386Z,100683.69
2023-12-30T20:44:05.424Z,100678.50
2023-12-30T20:44:39.695Z,100679.34
2023-12-30T20:45:15.294Z,100680.22
2023-12-30T20:45:48.957Z,100680.22
2023-12-30T20:46:22.630Z,100681.94
2023-12-30T20:46:55.989Z,100678.47
2023-12-30T20:47:29.687Z,100679.34
2023-12-30T20:48:03.532Z,100675.06
2023-12-30T20:48:41.458Z,100673.25
2023-12-30T20:49:15.125Z,100675.84
2023-12-30T20:49:48.999Z,100674.09
2023-12-30T20:50:23.208Z,100677.56
2023-12-30T20:50:56.670Z,100675.84
2023-12-30T20:51:30.388Z,100677.63
2023-12-30T20:52:04.208Z,100676.72
2023-12-30T20:52:39.036Z,100671.47
2023-12-30T20:53:12.504Z,100674.97
2023-12-30T20:53:49.187Z,100678.41
2023-12-30T20:54:22.908Z,100674.97
2023-12-30T20:54:56.244Z,100674.06
2023-12-30T20:55:30.455Z,100673.22
2023-12-30T20:56:03.944Z,100674.13
2023-12-30T20:56:37.271Z,100676.78
2023-12-30T20:57:13.514Z,100676.78
2023-12-30T20:57:46.802Z,100676.72
2023-12-30T20:58:20.209Z,100679.34
2023-12-30T20:58:53.895Z,100675.00
2023-12-30T20:59:27.497Z,100678.50
2023-12-30T21:00:01.163Z,100675.00
2023-12-30T21:00:34.901Z,100678.47
2023-12-30T21:01:09.172Z,100673.25
2023-12-30T21:01:44.513Z,100682.00
2023-12-30T21:02:18.126Z,100680.22
2023-12-30T21:02:51.953Z,100676.72
2023-12-30T21:03:27.724Z,100685.44
2023-12-30T21:04:01.513Z,100673.22
2023-12-30T21:04:36.341Z,100683.69
2023-12-30T21:05:12.909Z,100681.94
2023-12-30T21:05:47.590Z,100684.56
2023-12-30T21:06:25.064Z,100685.47
2023-12-30T21:06:59.870Z,100685.47
2023-12-30T21:07:33.508Z,100687.19
2023-12-30T21:08:12.481Z,100685.47
2023-12-30T21:08:47.970Z,100682.00
2023-12-30T21:09:23.072Z,100684.63
2023-12-30T21:09:56.404Z,100682.03
2023-12-30T21:10:30.579Z,100682.88
2023-12-30T21:11:07.279Z,100687.25
2023-12-30T21:11:46.923Z,100683.72
2023-12-30T21:12:20.747Z,100689.84
2023-12-30T21:12:54.539Z,100691.63
2023-12-30T21:13:28.214Z,100685.47
2023-12-30T21:14:01.541Z,100685.47
2023-12-30T21:14:35.016Z,100685.47
2023-12-30T21:15:10.655Z,100681.13
2023-12-30T21:15:44.720Z,100682.03
2023-12-30T21:16:19.524Z,100690.72
2023-12-30T21:16:56.209Z,100681.13
2023-12-30T21:17:29.641Z,100685.47
2023-12-30T21:18:07.833Z,100683.75
2023-12-30T21:18:44.889Z,100683.75
2023-12-30T21:19:18.818Z,100684.63
2023-12-30T21:19:52.518Z,100686.38
2023-12-30T21:20:26.065Z,100687.28
2023-12-30T21:21:03.890Z,100683.75
2023-12-30T21:21:44.193Z,100686.38
2023-12-30T21:22:17.766Z,100686.38
2023-12-30T21:22:56.573Z,100685.53
2023-12-30T21:23:32.938Z,100682.88
2023-12-30T21:24:14.829Z,100685.53
2023-12-30T21:24:48.186Z,100683.75
2023-12-30T21:25:27.380Z,100683.75
2023-12-30T21:26:04.692Z,100692.50
2023-12-30T21:26:38.723Z,100685.53
2023-12-30T21:27:14.960Z,100682.06
2023-12-30T21:27:53.961Z,100689.06
2023-12-30T21:28:31.795Z,100680.34
2023-12-30T21:29:10.563Z,100683.84
2023-12-30T21:29:52.412Z,100685.59
2023-12-30T21:30:30.052Z,100682.13
2023-12-30T21:31:08.076Z,100679.56
2023-12-30T21:31:45.424Z,100680.41
2023-12-30T21:32:30.748Z,100680.44
2023-12-30T21:33:05.306Z,100683.97
2023-12-30T21:33:45.427Z,100685.66
2023-12-30T21:34:19.385Z,100686.53
2023-12-30T21:34:59.624Z,100676.94
2023-12-30T21:35:33.704Z,100690.00
2023-12-30T21:36:08.017Z,100687.41
2023-12-30T21:36:46.037Z,100685.66
2023-12-30T21:37:19.700Z,100685.66
2023-12-30T21:37:55.976Z,100685.66
2023-12-30T21:38:32.714Z,100690.94
2023-12-30T21:39:07.712Z,100688.31
2023-12-30T21:39:42.643Z,100677.91
2023-12-30T21:40:18.251Z,100682.28
2023-12-30T21:40:51.633Z,100690.97
2023-12-30T21:41:25.313Z,100689.22
2023-12-30T21:42:01.695Z,100684.88
2023-12-30T21:42:37.554Z,100686.66
2023-12-30T21:43:12.918Z,100686.63
2023-12-30T21:43:52.344Z,100689.19
2023-12-30T21:44:34.220Z,100688.34
2023-12-30T21:45:13.940Z,100685.69
2023-12-30T21:45:49.499Z,100690.97
2023-12-30T21:46:24.885Z,100687.50
2023-12-30T21:47:06.856Z,100678.84
2023-12-30T21:47:40.461Z,100675.31
2023-12-30T21:48:14.589Z,100689.25
2023-12-30T21:48:51.041Z,100684.88
2023-12-30T21:49:25.876Z,100683.09
2023-12-30T21:50:05.670Z,100689.19
2023-12-30T21:50:39.756Z,100679.63
2023-12-30T21:51:14.698Z,100678.78
2023-12-30T21:51:51.466Z,100669.19
2023-12-30T21:52:27.605Z,100677.91
2023-12-30T21:53:01.416Z,100671.81
2023-12-30T21:53:37.896Z,100682.28
2023-12-30T21:54:17.691Z,100679.66
2023-12-30T21:54:51.140Z,100682.28
2023-12-30T21:55:27.726Z,100677.03
2023-12-30T21:56:01.188Z,100683.19
2023-12-30T21:56:37.775Z,100675.31
2023-12-30T21:57:14.073Z,100678.84
2023-12-30T21:57:47.724Z,100679.72
2023-12-30T21:58:21.528Z,100677.13
2023-12-30T21:58:58.984Z,100677.97
2023-12-30T21:59:35.348Z,100681.47
2023-12-30T22:00:10.428Z,100685.78
2023-12-30T22:00:45.971Z,100678.91
2023-12-30T22:01:19.452Z,100688.47
2023-12-30T22:01:52.905Z,100684.16
2023-12-30T22:02:27.840Z,100678.91
2023-12-30T22:03:01.721Z,100682.44
2023-12-30T22:03:35.736Z,100682.41
2023-12-30T22:04:09.386Z,100682.44
2023-12-30T22:04:44.756Z,100680.69
2023-12-30T22:05:30.660Z,100685.94
2023-12-30T22:06:05.489Z,100691.19
2023-12-30T22:06:39.452Z,100679.09
2023-12-30T22:07:15.633Z,100683.44
2023-12-30T22:07:49.394Z,100682.63
2023-12-30T22:08:27.649Z,100686.06
2023-12-30T22:09:01.256Z,100686.06
2023-12-30T22:09:37.828Z,100680.84
2023-12-30T22:10:23.603Z,100681.72
2023-12-30T22:11:00.277Z,100672.16
2023-12-30T22:11:36.207Z,100677.41
2023-12-30T22:12:09.516Z,100677.41
2023-12-30T22:12:44.334Z,100677.41
2023-12-30T22:13:17.881Z,100679.13
2023-12-30T22:13:51.273Z,100680.84
2023-12-30T22:14:29.171Z,100676.50
2023-12-30T22:15:05.536Z,100672.16
2023-12-30T22:15:40.572Z,100677.41
2023-12-30T22:16:14.024Z,100678.28
2023-12-30T22:16:49.030Z,100681.78
2023-12-30T22:17:25.532Z,100670.44
2023-12-30T22:17:59.385Z,100673.94
2023-12-30T22:18:33.037Z,100675.69
2023-12-30T22:19:07.977Z,100672.16
2023-12-30T22:19:42.669Z,100680.84
2023-12-30T22:20:18.568Z,100670.41
2023-12-30T22:20:53.956Z,100675.63
2023-12-30T22:21:34.056Z,100670.41
2023-12-30T22:22:11.600Z,100677.38
2023-12-30T22:22:48.420Z,100670.41
2023-12-30T22:23:22.105Z,100672.16
2023-12-30T22:24:01.157Z,100673.06
2023-12-30T22:24:37.437Z,100671.31
2023-12-30T22:25:13.324Z,100672.19
2023-12-30T22:25:50.166Z,100673.97
2023-12-30T22:26:23.452Z,100668.75
2023-12-30T22:27:00.051Z,100666.09
2023-12-30T22:27:37.048Z,100666.97
2023-12-30T22:28:11.411Z,100675.69
2023-12-30T22:28:45.500Z,100672.25
2023-12-30T22:29:26.347Z,100669.63
2023-12-30T22:30:03.169Z,100663.50
2023-12-30T22:30:36.965Z,100668.75
2023-12-30T22:31:16.147Z,100663.50
2023-12-30T22:31:49.670Z,100668.75
2023-12-30T22:32:25.591Z,100665.22
2023-12-30T22:33:02.110Z,100665.25
2023-12-30T22:33:36.005Z,100656.56
2023-12-30T22:34:10.830Z,100660.03
2023-12-30T22:34:45.813Z,100664.41
2023-12-30T22:35:19.742Z,100661.81
2023-12-30T22:35:53.779Z,100660.94
2023-12-30T22:36:32.104Z,100657.47
2023-12-30T22:37:05.708Z,100660.06
2023-12-30T22:37:42.152Z,100665.31
2023-12-30T22:38:19.512Z,100661.81
2023-12-30T22:38:53.039Z,100665.31
2023-12-30T22:39:27.505Z,100670.56
2023-12-30T22:40:02.530Z,100655.72
2023-12-30T22:40:38.723Z,100661.81
2023-12-30T22:41:15.457Z,100659.22
2023-12-30T22:41:49.171Z,100656.56
2023-12-30T22:42:22.593Z,100656.56
2023-12-30T22:42:56.927Z,100654.88
2023-12-30T22:43:32.651Z,100653.16
2023-12-30T22:44:06.286Z,100658.38
2023-12-30T22:44:42.187Z,100658.38
2023-12-30T22:45:18.085Z,100661.81
2023-12-30T22:45:54.232Z,100656.59
2023-12-30T22:46:30.360Z,100657.47
2023-12-30T22:47:06.929Z,100661.81
2023-12-30T22:47:44.209Z,100647.91
2023-12-30T22:48:20.171Z,100665.31
2023-12-30T22:48:56.479Z,100660.09
2023-12-30T22:49:37.597Z,100660.09
2023-12-30T22:50:13.419Z,100659.22
2023-12-30T22:50:46.952Z,100654.03
2023-12-30T22:51:23.540Z,100664.50
2023-12-30T22:52:00.097Z,100664.47
2023-12-30T22:52:37.799Z,100660.13
2023-12-30T22:53:11.756Z,100671.44
2023-12-30T22:53:47.514Z,100662.72
2023-12-30T22:54:28.368Z,100667.13
2023-12-30T22:55:03.490Z,100664.50
2023-12-30T22:55:36.962Z,100663.66
2023-12-30T22:56:13.482Z,100673.22
2023-12-30T22:56:46.988Z,100665.44
2023-12-30T22:57:20.718Z,100671.53
2023-12-30T22:57:54.328Z,100668.03
2023-12-30T22:58:27.872Z,100670.69
2023-12-30T22:59:01.620Z,100675.94
2023-12-30T22:59:35.471Z,100669.00
2023-12-30T23:00:11.897Z,100673.34
2023-12-30T23:00:46.763Z,100663.78
2023-12-30T23:01:23.251Z,100664.63
2023-12-30T23:02:00.037Z,100675.09
2023-12-30T23:02:39.624Z,100666.41
2023-12-30T23:03:13.471Z,100672.50
2023-12-30T23:03:49.858Z,100669.06
2023-12-30T23:04:24.811Z,100670.81
2023-12-30T23:05:00.977Z,100665.63
2023-12-30T23:05:34.408Z,100666.50
2023-12-30T23:06:09.681Z,100666.53
2023-12-30T23:06:44.521Z,100670.88
2023-12-30T23:07:23.996Z,100666.53
